This is the latest recevied weather packets stored in our database for station/object EA3FHP. If no packets are shown the sender has not sent any weather packets the latest 10 day(s).
| Time | Temp. | Humidity | Pressure | Rain* | Wind** | Luminosity | Snow |
|---|---|---|---|---|---|---|---|
| 1787995203 | 24.44° C | 50% | 1021.9 hPa | 0 mm | - | - | - |
| 1787994603 | 23.33° C | 51% | 1022.2 hPa | 0 mm | - | - | - |
| 1787994004 | 22.22° C | 55% | 1022 hPa | 0 mm | - | - | - |
| 1787993403 | 22.78° C | 54% | 1022.1 hPa | 0 mm | - | - | - |
| 1787992803 | 22.22° C | 56% | 1021.9 hPa | 0 mm | - | - | - |
| 1787992203 | 20.56° C | 59% | 1022.1 hPa | 0 mm | - | - | - |
| 1787991603 | 19.44° C | 62% | 1022.2 hPa | 0 mm | - | - | - |
| 1787991003 | 18.89° C | 62% | 1021.9 hPa | 0 mm | - | - | - |
| 1787990403 | 18.33° C | 66% | 1022 hPa | 0 mm | - | - | - |
| 1787989803 | 18.33° C | 66% | 1022 hPa | 0 mm | - | - | - |
| 1787989203 | 18.33° C | 65% | 1022 hPa | 0 mm | - | - | - |
| 1787988603 | 17.22° C | 67% | 1022.1 hPa | 0 mm | - | - | - |
| 1787988003 | 15.56° C | 72% | 1021.9 hPa | 0 mm | - | - | - |
| 1787987403 | 15.56° C | 72% | 1022.1 hPa | 0 mm | - | - | - |
| 1787986803 | 14.44° C | 75% | 1022 hPa | 0 mm | - | - | - |
| 1787986203 | 13.89° C | 78% | 1022 hPa | 0 mm | - | - | - |
| 1787985603 | 13.33° C | 81% | 1022 hPa | 0 mm | - | - | - |
| 1787985003 | 12.78° C | 83% | 1022 hPa | 0 mm | - | - | - |
| 1787984403 | 12.22° C | 83% | 1022.1 hPa | 0 mm | - | - | - |
| 1787983803 | 12.22° C | 83% | 1022.2 hPa | 0 mm | - | - | - |
| 1787983203 | 11.67° C | 83% | 1022 hPa | 0 mm | - | - | - |
| 1787982603 | 11.67° C | 83% | 1022.1 hPa | 0 mm | - | - | - |
| 1787982003 | 11.67° C | 84% | 1022 hPa | 0 mm | - | - | - |
| 1787981403 | 11.67° C | 84% | 1021.7 hPa | 0 mm | - | - | - |
| 1787980803 | 11.67° C | 84% | 1021.8 hPa | 0 mm | - | - | - |
* Rain latest hour (hover to see other rain measurements)
** Current wind speed in m/s (hover to see current wind gust speed)